createdAt,value
2022-12-15T00:00:17.737Z,26.20
2022-12-15T00:03:38.393Z,26.77
2022-12-15T00:06:59.023Z,26.43
2022-12-15T00:10:19.241Z,26.70
2022-12-15T00:13:41.100Z,24.57
2022-12-15T00:17:01.253Z,29.77
2022-12-15T00:20:21.392Z,24.97
2022-12-15T00:23:41.705Z,25.43
2022-12-15T00:27:02.041Z,25.17
2022-12-15T00:30:25.062Z,26.60
2022-12-15T00:33:45.465Z,27.57
2022-12-15T00:37:05.820Z,24.70
2022-12-15T00:40:09.792Z,27.03
2022-12-15T00:43:12.647Z,27.00
2022-12-15T00:46:34.317Z,26.03
2022-12-15T00:49:54.702Z,26.13
2022-12-15T00:53:14.979Z,25.40
2022-12-15T00:56:35.339Z,24.53
2022-12-15T00:59:55.717Z,24.70
2022-12-15T01:03:17.479Z,24.43
2022-12-15T01:06:39.061Z,24.57
2022-12-15T01:09:59.609Z,26.17
2022-12-15T01:13:19.916Z,23.93
2022-12-15T01:16:40.215Z,25.67
2022-12-15T01:20:02.083Z,24.20
2022-12-15T01:23:05.158Z,25.00
2022-12-15T01:26:08.483Z,27.93
2022-12-15T01:29:11.374Z,25.97
2022-12-15T01:32:14.625Z,23.97
2022-12-15T01:35:19.739Z,25.33
2022-12-15T01:38:22.631Z,26.03
2022-12-15T01:41:25.822Z,25.70
2022-12-15T01:44:28.760Z,22.90
2022-12-15T01:47:32.041Z,23.57
2022-12-15T01:50:41.686Z,24.43
2022-12-15T01:53:50.208Z,25.40
2022-12-15T01:56:56.676Z,21.70
2022-12-15T02:00:03.653Z,22.67
2022-12-15T02:03:08.417Z,23.77
2022-12-15T02:06:13.391Z,24.37
2022-12-15T02:09:17.301Z,23.27
2022-12-15T02:12:29.246Z,22.40
2022-12-15T02:15:38.919Z,24.73
2022-12-15T02:18:51.774Z,23.63
2022-12-15T02:22:12.933Z,23.50
2022-12-15T02:25:43.467Z,24.00
2022-12-15T02:28:57.467Z,24.70
2022-12-15T02:32:09.328Z,23.53
2022-12-15T02:35:16.684Z,25.90
2022-12-15T02:38:30.021Z,25.60
2022-12-15T02:41:36.834Z,24.90
2022-12-15T02:44:44.020Z,26.20
2022-12-15T02:47:56.357Z,24.27
2022-12-15T02:51:09.938Z,25.77
2022-12-15T02:54:24.901Z,24.40
2022-12-15T02:57:38.070Z,25.77
2022-12-15T03:00:47.968Z,26.43
2022-12-15T03:03:53.234Z,26.67
2022-12-15T03:07:01.043Z,27.20
2022-12-15T03:10:07.084Z,27.00
2022-12-15T03:13:09.987Z,30.50
2022-12-15T03:16:12.960Z,26.97
2022-12-15T03:19:17.239Z,30.40
2022-12-15T03:22:20.317Z,29.17
2022-12-15T03:25:23.223Z,27.93
2022-12-15T03:28:26.120Z,27.33
2022-12-15T03:31:29.128Z,32.17
2022-12-15T03:34:33.648Z,31.83
2022-12-15T03:37:36.531Z,29.27
2022-12-15T03:40:39.416Z,29.37
2022-12-15T03:43:42.294Z,32.77
2022-12-15T03:46:45.206Z,31.70
2022-12-15T03:49:49.486Z,33.50
2022-12-15T03:52:53.370Z,27.83
2022-12-15T03:55:56.258Z,30.80
2022-12-15T03:58:59.160Z,31.53
2022-12-15T04:02:02.278Z,32.97
2022-12-15T04:05:07.829Z,31.03
2022-12-15T04:08:11.390Z,30.07
2022-12-15T04:11:14.269Z,31.80
2022-12-15T04:14:17.192Z,29.67
2022-12-15T04:17:20.101Z,32.03
2022-12-15T04:20:24.597Z,28.80
2022-12-15T04:23:27.711Z,30.67
2022-12-15T04:26:48.475Z,33.63
2022-12-15T04:30:10.242Z,32.77
2022-12-15T04:33:31.189Z,30.87
2022-12-15T04:36:54.077Z,30.87
2022-12-15T04:40:14.875Z,30.83
2022-12-15T04:43:35.191Z,30.13
2022-12-15T04:46:55.433Z,36.07
2022-12-15T04:50:15.948Z,30.23
2022-12-15T04:53:38.574Z,32.43
2022-12-15T04:56:58.829Z,31.83
2022-12-15T05:00:19.124Z,36.73
2022-12-15T05:03:39.656Z,35.83
2022-12-15T05:07:00.145Z,35.00
2022-12-15T05:10:23.113Z,33.20
2022-12-15T05:13:43.625Z,32.03
2022-12-15T05:17:04.083Z,34.23
2022-12-15T05:20:25.394Z,29.90
2022-12-15T05:23:45.752Z,32.93
2022-12-15T05:27:07.513Z,36.27
2022-12-15T05:30:28.673Z,32.70
2022-12-15T05:33:31.940Z,38.97
2022-12-15T05:36:35.212Z,29.90
2022-12-15T05:39:38.097Z,31.30
2022-12-15T05:42:42.340Z,34.60
2022-12-15T05:45:45.218Z,33.97
2022-12-15T05:48:48.385Z,33.93
2022-12-15T05:51:51.423Z,30.47
2022-12-15T05:54:54.325Z,30.43
2022-12-15T05:57:58.611Z,29.77
2022-12-15T06:01:05.955Z,39.67
2022-12-15T06:04:08.894Z,33.57
2022-12-15T06:07:11.807Z,33.30
2022-12-15T06:10:14.753Z,31.47
2022-12-15T06:13:19.104Z,35.37
2022-12-15T06:16:23.599Z,26.03
2022-12-15T06:19:26.493Z,27.80
2022-12-15T06:22:29.887Z,34.00
2022-12-15T06:25:32.927Z,33.33
2022-12-15T06:28:37.421Z,30.03
2022-12-15T06:31:42.499Z,32.43
2022-12-15T06:34:45.576Z,30.40
2022-12-15T06:37:48.471Z,34.17
2022-12-15T06:40:56.208Z,32.00
2022-12-15T06:44:01.381Z,28.57
2022-12-15T06:47:04.626Z,35.17
2022-12-15T06:50:07.901Z,30.93
2022-12-15T06:53:10.831Z,34.87
2022-12-15T06:56:18.359Z,34.87
2022-12-15T06:59:22.597Z,30.73
2022-12-15T07:02:29.144Z,34.67
2022-12-15T07:05:32.286Z,36.23
2022-12-15T07:08:41.301Z,30.17
2022-12-15T07:11:45.144Z,35.60
2022-12-15T07:14:53.373Z,37.67
2022-12-15T07:17:57.118Z,33.17
2022-12-15T07:21:04.524Z,31.77
2022-12-15T07:24:08.484Z,33.87
2022-12-15T07:27:11.480Z,32.53
2022-12-15T07:30:17.565Z,35.50
2022-12-15T07:33:20.535Z,29.90
2022-12-15T07:36:23.552Z,34.87
2022-12-15T07:39:27.343Z,31.27
2022-12-15T07:42:30.673Z,35.47
2022-12-15T07:45:34.910Z,30.13
2022-12-15T07:48:37.823Z,32.50
2022-12-15T07:51:41.251Z,29.53
2022-12-15T07:54:45.293Z,35.17
2022-12-15T07:57:49.101Z,34.60
2022-12-15T08:00:53.747Z,34.80
2022-12-15T08:03:56.827Z,39.60
2022-12-15T08:07:00.147Z,33.80
2022-12-15T08:10:03.381Z,35.13
2022-12-15T08:13:06.291Z,35.03
2022-12-15T08:16:10.983Z,36.00
2022-12-15T08:19:15.736Z,35.17
2022-12-15T08:22:18.677Z,37.93
2022-12-15T08:25:22.637Z,37.13
2022-12-15T08:28:25.549Z,32.93
2022-12-15T08:31:31.623Z,34.27
2022-12-15T08:34:34.555Z,38.90
2022-12-15T08:37:37.576Z,39.20
2022-12-15T08:40:40.442Z,42.00
2022-12-15T08:43:48.017Z,34.50
2022-12-15T08:46:53.088Z,36.70
2022-12-15T08:49:56.046Z,37.40
2022-12-15T08:53:29.167Z,32.77
2022-12-15T08:56:23.185Z,36.03
2022-12-15T08:59:26.506Z,37.63
2022-12-15T09:02:30.814Z,39.30
2022-12-15T09:05:35.733Z,35.27
2022-12-15T09:08:38.997Z,40.47
2022-12-15T09:11:41.897Z,35.07
2022-12-15T09:14:44.787Z,39.90
2022-12-15T09:17:49.293Z,37.53
2022-12-15T09:20:52.286Z,37.07
2022-12-15T09:23:58.371Z,35.63
2022-12-15T09:27:01.316Z,36.13
2022-12-15T09:30:06.628Z,36.63
2022-12-15T09:33:10.893Z,35.37
2022-12-15T09:36:14.365Z,37.53
2022-12-15T09:39:17.538Z,37.50
2022-12-15T09:42:25.929Z,38.50
2022-12-15T09:45:35.277Z,38.10
2022-12-15T09:48:44.378Z,33.07
2022-12-15T09:51:52.696Z,37.40
2022-12-15T09:54:55.948Z,41.77
2022-12-15T09:58:09.109Z,39.93
2022-12-15T10:01:21.473Z,39.33
2022-12-15T10:04:39.008Z,42.33
2022-12-15T10:07:46.391Z,41.47
2022-12-15T10:10:55.566Z,38.33
2022-12-15T10:14:05.236Z,42.00
2022-12-15T10:17:21.360Z,47.00
2022-12-15T10:20:28.680Z,43.93
2022-12-15T10:23:39.892Z,36.30
2022-12-15T10:26:44.132Z,40.23
2022-12-15T10:29:55.095Z,38.77
2022-12-15T10:33:03.727Z,52.37
2022-12-15T10:36:11.265Z,44.63
2022-12-15T10:39:16.203Z,42.37
2022-12-15T10:42:22.285Z,38.37
2022-12-15T10:45:36.678Z,42.27
2022-12-15T10:48:40.107Z,39.73
2022-12-15T10:51:48.394Z,37.63
2022-12-15T10:54:53.251Z,39.77
2022-12-15T10:57:59.914Z,38.23
2022-12-15T11:01:15.667Z,37.47
2022-12-15T11:04:27.499Z,37.93
2022-12-15T11:07:39.571Z,38.90
2022-12-15T11:11:09.763Z,41.03
2022-12-15T11:14:15.415Z,38.57
2022-12-15T11:17:19.911Z,38.03
2022-12-15T11:20:28.814Z,41.83
2022-12-15T11:23:48.885Z,36.03
2022-12-15T11:26:58.968Z,39.80
2022-12-15T11:30:12.325Z,36.57
2022-12-15T11:33:15.814Z,44.20
2022-12-15T11:36:31.066Z,43.23
2022-12-15T11:39:48.765Z,43.73
2022-12-15T11:43:19.140Z,45.23
2022-12-15T11:46:24.289Z,43.43
2022-12-15T11:49:43.152Z,43.17
2022-12-15T11:53:05.869Z,41.83
2022-12-15T11:56:21.542Z,38.80
2022-12-15T11:59:55.367Z,42.23
2022-12-15T12:03:08.829Z,43.37
2022-12-15T12:06:15.785Z,42.40
2022-12-15T12:09:30.519Z,43.17
2022-12-15T12:12:41.129Z,44.97
2022-12-15T12:15:55.602Z,41.53
2022-12-15T12:19:03.421Z,46.63
2022-12-15T12:22:13.112Z,40.07
2022-12-15T12:25:19.679Z,42.17
2022-12-15T12:28:29.638Z,42.73
2022-12-15T12:31:43.593Z,39.33
2022-12-15T12:35:31.433Z,43.83
2022-12-15T12:38:27.363Z,42.10
2022-12-15T12:41:38.000Z,36.40
2022-12-15T12:44:42.991Z,39.00
2022-12-15T12:47:50.578Z,38.87
2022-12-15T12:51:09.155Z,41.93
2022-12-15T12:54:42.638Z,43.30
2022-12-15T12:57:46.328Z,36.43
2022-12-15T13:01:07.995Z,38.77
2022-12-15T13:04:13.412Z,38.77
2022-12-15T13:07:31.047Z,41.07
2022-12-15T13:10:36.214Z,38.53
2022-12-15T13:13:51.087Z,45.70
2022-12-15T13:20:28.759Z,42.63
2022-12-15T13:23:42.503Z,41.17
2022-12-15T13:26:48.679Z,46.13
2022-12-15T13:29:57.927Z,46.23
2022-12-15T13:33:19.565Z,47.07
2022-12-15T13:36:50.665Z,42.27
2022-12-15T13:39:58.816Z,46.17
2022-12-15T13:43:10.368Z,46.47
2022-12-15T13:46:17.508Z,50.53
2022-12-15T13:49:27.923Z,52.17
2022-12-15T13:53:08.045Z,54.33
2022-12-15T13:56:18.308Z,52.97
2022-12-15T13:59:30.313Z,55.20
2022-12-15T14:02:35.743Z,57.03
2022-12-15T14:05:42.890Z,52.80
2022-12-15T14:08:45.911Z,52.87
2022-12-15T14:11:54.471Z,54.40
2022-12-15T14:14:57.718Z,49.77
2022-12-15T14:18:03.118Z,55.20
2022-12-15T14:21:20.316Z,62.20
2022-12-15T14:24:38.624Z,54.10
2022-12-15T14:27:42.764Z,55.03
2022-12-15T14:30:46.160Z,55.87
2022-12-15T14:34:00.301Z,54.97
2022-12-15T14:37:10.250Z,52.50
2022-12-15T14:40:16.910Z,52.30
2022-12-15T14:43:23.476Z,56.40
2022-12-15T14:46:28.209Z,56.03
2022-12-15T14:49:34.315Z,52.87
2022-12-15T14:52:41.216Z,54.70
2022-12-15T14:55:44.183Z,53.97
2022-12-15T14:58:48.836Z,47.93
2022-12-15T15:01:59.171Z,55.90
2022-12-15T15:05:04.909Z,46.30
2022-12-15T15:08:14.697Z,51.53
2022-12-15T15:11:29.711Z,51.20
2022-12-15T15:14:38.424Z,50.77
2022-12-15T15:17:46.813Z,50.87
2022-12-15T15:20:56.632Z,51.53
2022-12-15T15:24:02.885Z,49.83
2022-12-15T15:27:25.705Z,48.67
2022-12-15T15:30:28.935Z,49.67
2022-12-15T15:33:32.619Z,51.13
2022-12-15T15:36:37.720Z,49.87
2022-12-15T15:39:42.486Z,52.57
2022-12-15T15:42:46.330Z,52.27
2022-12-15T15:45:51.033Z,47.73
2022-12-15T15:48:56.585Z,46.20
2022-12-15T15:51:59.689Z,48.77
2022-12-15T15:55:03.985Z,52.43
2022-12-15T15:58:11.734Z,50.33
2022-12-15T16:01:14.660Z,44.43
2022-12-15T16:04:17.598Z,50.30
2022-12-15T16:07:24.383Z,47.60
2022-12-15T16:10:29.121Z,49.53
2022-12-15T16:13:32.013Z,46.67
2022-12-15T16:16:35.004Z,46.37
2022-12-15T16:19:39.856Z,42.57
2022-12-15T16:22:44.881Z,44.57
2022-12-15T16:25:52.771Z,48.70
2022-12-15T16:28:56.200Z,45.73
2022-12-15T16:31:59.151Z,44.67
2022-12-15T16:35:02.049Z,46.33
2022-12-15T16:38:05.180Z,47.57
2022-12-15T16:41:15.709Z,50.57
2022-12-15T16:44:18.673Z,48.53
2022-12-15T16:47:21.577Z,48.23
2022-12-15T16:50:30.285Z,45.73
2022-12-15T16:53:35.207Z,52.63
2022-12-15T16:56:39.494Z,49.47
2022-12-15T16:59:42.407Z,51.93
2022-12-15T17:02:45.453Z,54.13
2022-12-15T17:05:50.957Z,48.97
2022-12-15T17:08:57.541Z,51.47
2022-12-15T17:12:02.819Z,49.90
2022-12-15T17:15:16.549Z,49.37
2022-12-15T17:18:19.453Z,46.60
2022-12-15T17:21:26.829Z,48.03
2022-12-15T17:24:29.762Z,49.13
2022-12-15T17:27:34.091Z,53.93
2022-12-15T17:30:36.998Z,49.07
2022-12-15T17:33:39.891Z,51.13
2022-12-15T17:36:42.886Z,53.77
2022-12-15T17:39:50.861Z,50.77
2022-12-15T17:42:55.436Z,54.43
2022-12-15T17:45:58.331Z,52.90
2022-12-15T17:49:01.425Z,52.90
2022-12-15T17:52:08.127Z,51.73
2022-12-15T17:55:20.018Z,55.30
2022-12-15T17:58:26.152Z,57.10
2022-12-15T18:01:29.104Z,59.47
2022-12-15T18:04:32.379Z,57.57
2022-12-15T18:07:35.616Z,59.20
2022-12-15T18:10:40.657Z,62.23
2022-12-15T18:13:44.989Z,59.67
2022-12-15T18:16:48.259Z,55.50
2022-12-15T18:19:51.187Z,58.90
2022-12-15T18:22:54.815Z,61.00
2022-12-15T18:26:02.951Z,58.73
2022-12-15T18:29:14.138Z,66.73
2022-12-15T18:32:18.113Z,61.07
2022-12-15T18:35:23.972Z,58.93
2022-12-15T18:38:28.117Z,67.13
2022-12-15T18:41:31.027Z,66.67
2022-12-15T18:44:35.314Z,67.90
2022-12-15T18:47:38.233Z,66.03
2022-12-15T18:50:41.255Z,65.67
2022-12-15T18:53:44.750Z,64.13
2022-12-15T18:56:47.732Z,72.30
2022-12-15T18:59:51.955Z,69.87
2022-12-15T19:02:57.137Z,64.80
2022-12-15T19:06:02.785Z,64.73
2022-12-15T19:09:07.563Z,65.27
2022-12-15T19:12:21.130Z,66.30
2022-12-15T19:15:25.471Z,65.27
2022-12-15T19:18:46.211Z,69.07
2022-12-15T19:22:07.023Z,69.33
2022-12-15T19:25:13.067Z,63.97
2022-12-15T19:28:19.124Z,60.00
2022-12-15T19:31:23.547Z,62.57
2022-12-15T19:34:26.489Z,66.13
2022-12-15T19:37:31.869Z,70.00
2022-12-15T19:40:36.917Z,72.40
2022-12-15T19:43:39.900Z,67.90
2022-12-15T19:46:44.723Z,68.23
2022-12-15T19:49:47.675Z,65.63
2022-12-15T19:52:53.057Z,67.07
2022-12-15T19:55:58.167Z,74.77
2022-12-15T19:59:01.092Z,76.27
2022-12-15T20:02:05.486Z,73.27
2022-12-15T20:05:09.108Z,68.13
2022-12-15T20:08:16.124Z,71.33
2022-12-15T20:11:20.913Z,66.83
2022-12-15T20:14:23.849Z,68.47
2022-12-15T20:17:28.108Z,66.70
2022-12-15T20:20:31.350Z,65.70
2022-12-15T20:23:36.265Z,57.53
2022-12-15T20:26:40.248Z,59.40
2022-12-15T20:29:43.731Z,60.93
2022-12-15T20:32:48.436Z,63.67
2022-12-15T20:35:52.264Z,54.60
2022-12-15T20:38:55.591Z,60.10
2022-12-15T20:41:58.917Z,50.80
2022-12-15T20:45:02.123Z,51.23
2022-12-15T20:48:07.054Z,47.70
2022-12-15T20:51:23.755Z,52.47
2022-12-15T20:54:26.650Z,48.70
2022-12-15T20:57:29.550Z,49.13
2022-12-15T21:00:32.475Z,48.07
2022-12-15T21:03:38.217Z,48.67
2022-12-15T21:06:43.884Z,45.60
2022-12-15T21:09:47.219Z,45.47
2022-12-15T21:12:51.193Z,38.70
2022-12-15T21:15:54.622Z,34.57
2022-12-15T21:22:23.836Z,33.43
2022-12-15T21:25:29.045Z,38.07
2022-12-15T21:28:32.272Z,36.43
2022-12-15T21:31:35.586Z,32.57
2022-12-15T21:34:40.119Z,32.10
2022-12-15T21:37:44.609Z,29.57
2022-12-15T21:40:47.550Z,27.37
2022-12-15T21:43:51.053Z,23.03
2022-12-15T21:46:54.781Z,25.43
2022-12-15T21:49:58.686Z,28.67
2022-12-15T21:53:02.828Z,24.10
2022-12-15T21:56:06.117Z,30.90
2022-12-15T21:59:13.747Z,27.37
2022-12-15T22:02:24.582Z,25.77
2022-12-15T22:05:30.347Z,26.97
2022-12-15T22:08:33.577Z,24.53
2022-12-15T22:11:36.772Z,22.40
2022-12-15T22:14:39.832Z,21.47
2022-12-15T22:17:44.105Z,23.93
2022-12-15T22:20:49.927Z,22.73
2022-12-15T22:23:53.501Z,23.67
2022-12-15T22:26:56.467Z,21.90
2022-12-15T22:29:59.364Z,20.30
2022-12-15T22:33:03.384Z,24.57
2022-12-15T22:36:08.290Z,21.63
2022-12-15T22:39:11.776Z,22.10
2022-12-15T22:42:17.395Z,25.90
2022-12-15T22:45:23.831Z,22.77
2022-12-15T22:48:29.880Z,24.37
2022-12-15T22:51:35.052Z,23.77
2022-12-15T22:54:42.592Z,20.77
2022-12-15T22:57:52.074Z,22.73
2022-12-15T23:00:57.668Z,23.87
2022-12-15T23:04:00.748Z,23.03
2022-12-15T23:07:06.888Z,20.13
2022-12-15T23:10:28.513Z,25.83
2022-12-15T23:13:31.696Z,22.03
2022-12-15T23:16:35.191Z,20.80
2022-12-15T23:19:38.149Z,24.63
2022-12-15T23:22:42.472Z,23.97
2022-12-15T23:25:46.672Z,21.63
2022-12-15T23:28:49.784Z,24.10
2022-12-15T23:31:53.625Z,22.07
2022-12-15T23:34:56.498Z,23.07
2022-12-15T23:38:00.723Z,24.73
2022-12-15T23:41:03.678Z,23.50
2022-12-15T23:44:06.763Z,23.33
2022-12-15T23:47:09.725Z,23.27
2022-12-15T23:50:12.687Z,21.80
2022-12-15T23:53:17.224Z,23.70
2022-12-15T23:56:22.242Z,24.00
2022-12-15T23:59:25.199Z,22.20
